Cherry Plain, New York
Current Conditions -  °F | °C
As of 3:00 AM on Saturday 25 Oct 2014 (Local Time) from KAQW Reporting Station
Moderate Fog Moderate Fog  
Wind Chill: 38°   Ceiling: 100
Heat Index: 38°   Visibility: 0.25mi
Dew Point: 38°   Wind: 3mph
Humidity: 100%   Direction: 280°W
Pressure: 29.83"   Gusts: NA
Location:  42.63°N, 73.36°W
Report Text: KAQW 250700Z AUTO 28003KT 1/4SM FG VV001 03/03 A2983 RMK AO2 T00330033
Loading
Personal Weather Stations






























Interactive Weather Map
Tropical Storm Tracking
New forecast layout! Learn more

10-Day Weather Forecast

Advertisements
Track Severe Weather on mobile